createdAt,value
2023-03-13T00:01:20.134Z,6.4
2023-03-13T00:03:46.616Z,6.4
2023-03-13T00:06:12.319Z,6.3
2023-03-13T00:08:38.423Z,6.3
2023-03-13T00:11:04.513Z,6.3
2023-03-13T00:13:30.624Z,6.3
2023-03-13T00:15:56.713Z,6.2
2023-03-13T00:18:22.806Z,6.2
2023-03-13T00:20:48.909Z,6.2
2023-03-13T00:23:14.981Z,6.2
2023-03-13T00:25:41.084Z,6.2
2023-03-13T00:28:06.224Z,6.2
2023-03-13T00:30:32.333Z,6.2
2023-03-13T00:32:58.401Z,6.2
2023-03-13T00:35:24.501Z,6.2
2023-03-13T00:37:50.586Z,6.2
2023-03-13T00:40:16.672Z,6.2
2023-03-13T00:42:42.817Z,6.2
2023-03-13T00:45:08.868Z,6.2
2023-03-13T00:47:34.976Z,6.2
2023-03-13T00:50:01.099Z,6.3
2023-03-13T00:52:27.172Z,6.3
2023-03-13T00:54:53.256Z,6.3
2023-03-13T00:57:19.356Z,6.3
2023-03-13T00:59:44.453Z,6.3
2023-03-13T01:02:10.566Z,6.3
2023-03-13T01:04:36.659Z,6.3
2023-03-13T01:07:02.752Z,6.4
2023-03-13T01:09:28.842Z,6.4
2023-03-13T01:11:54.951Z,6.4
2023-03-13T01:14:21.042Z,6.4
2023-03-13T01:16:47.159Z,6.4
2023-03-13T01:19:13.273Z,6.4
2023-03-13T01:21:39.320Z,6.4
2023-03-13T01:24:05.622Z,6.4
2023-03-13T01:26:31.535Z,6.4
2023-03-13T01:28:57.607Z,6.4
2023-03-13T01:31:22.735Z,6.4
2023-03-13T01:33:48.820Z,6.4
2023-03-13T01:36:14.917Z,6.4
2023-03-13T01:38:41.022Z,6.4
2023-03-13T01:41:07.101Z,6.4
2023-03-13T01:43:33.219Z,6.4
2023-03-13T01:45:59.296Z,6.4
2023-03-13T01:48:25.405Z,6.4
2023-03-13T01:50:51.507Z,6.3
2023-03-13T01:53:17.574Z,6.3
2023-03-13T01:55:43.696Z,6.3
2023-03-13T01:58:09.776Z,6.3
2023-03-13T02:00:35.877Z,6.3
2023-03-13T02:03:00.986Z,6.3
2023-03-13T02:05:27.080Z,6.3
2023-03-13T02:07:53.174Z,6.3
2023-03-13T02:10:19.299Z,6.3
2023-03-13T02:12:45.370Z,6.3
2023-03-13T02:15:11.463Z,6.3
2023-03-13T02:17:37.552Z,6.3
2023-03-13T02:20:03.659Z,6.3
2023-03-13T02:22:29.753Z,6.3
2023-03-13T02:24:55.849Z,6.4
2023-03-13T02:27:21.950Z,6.4
2023-03-13T02:29:48.039Z,6.4
2023-03-13T02:32:14.139Z,6.4
2023-03-13T02:34:39.254Z,6.4
2023-03-13T02:37:05.329Z,6.5
2023-03-13T02:39:31.443Z,6.5
2023-03-13T02:41:57.542Z,6.5
2023-03-13T02:44:23.658Z,6.5
2023-03-13T02:46:49.723Z,6.6
2023-03-13T02:49:15.817Z,6.6
2023-03-13T02:51:41.918Z,6.6
2023-03-13T02:54:08.027Z,6.6
2023-03-13T02:56:34.119Z,6.7
2023-03-13T02:59:00.218Z,6.7
2023-03-13T03:01:26.305Z,6.7
2023-03-13T03:03:52.397Z,6.8
2023-03-13T03:06:17.520Z,6.8
2023-03-13T03:08:43.609Z,6.8
2023-03-13T03:11:09.709Z,6.8
2023-03-13T03:13:35.814Z,6.8
2023-03-13T03:16:01.896Z,6.8
2023-03-13T03:18:28.001Z,6.9
2023-03-13T03:20:54.133Z,6.9
2023-03-13T03:23:20.167Z,6.9
2023-03-13T03:25:46.281Z,6.9
2023-03-13T03:28:12.371Z,6.9
2023-03-13T03:30:38.474Z,7
2023-03-13T03:33:04.568Z,7
2023-03-13T03:35:30.661Z,7
2023-03-13T03:37:55.771Z,7
2023-03-13T03:40:21.916Z,7
2023-03-13T03:42:47.941Z,7
2023-03-13T03:45:14.060Z,7.1
2023-03-13T03:47:40.147Z,7.1
2023-03-13T03:50:06.247Z,7.1
2023-03-13T03:52:32.357Z,7.1
2023-03-13T03:54:58.439Z,7.1
2023-03-13T03:57:24.530Z,7.1
2023-03-13T03:59:50.638Z,7.2
2023-03-13T04:02:16.799Z,7.2
2023-03-13T04:04:42.852Z,7.2
2023-03-13T04:07:08.951Z,7.2
2023-03-13T04:09:34.053Z,7.2
2023-03-13T04:12:00.126Z,7.2
2023-03-13T04:14:26.249Z,7.2
2023-03-13T04:16:52.324Z,7.2
2023-03-13T04:19:18.448Z,7.2
2023-03-13T04:21:44.514Z,7.3
2023-03-13T04:24:10.619Z,7.3
2023-03-13T04:26:36.708Z,7.3
2023-03-13T04:29:02.801Z,7.3
2023-03-13T04:31:28.912Z,7.3
2023-03-13T04:33:54.997Z,7.3
2023-03-13T04:36:21.084Z,7.4
2023-03-13T04:38:47.182Z,7.4
2023-03-13T04:41:12.304Z,7.4
2023-03-13T04:43:38.393Z,7.4
2023-03-13T04:46:04.491Z,7.5
2023-03-13T04:48:30.577Z,7.5
2023-03-13T04:50:56.680Z,7.5
2023-03-13T04:53:22.804Z,7.5
2023-03-13T04:55:48.871Z,7.5
2023-03-13T04:58:14.970Z,7.5
2023-03-13T05:00:41.057Z,7.6
2023-03-13T05:03:07.160Z,7.6
2023-03-13T05:05:33.258Z,7.6
2023-03-13T05:07:59.362Z,7.6
2023-03-13T05:10:25.455Z,7.7
2023-03-13T05:12:51.541Z,7.7
2023-03-13T05:15:17.650Z,7.7
2023-03-13T05:17:43.739Z,7.8
2023-03-13T05:20:09.818Z,7.8
2023-03-13T05:22:35.930Z,7.9
2023-03-13T05:25:02.055Z,8
2023-03-13T05:27:28.127Z,8.2
2023-03-13T05:29:54.216Z,8.4
2023-03-13T05:32:20.447Z,8.5
2023-03-13T05:34:46.406Z,8.7
2023-03-13T05:37:12.499Z,8.9
2023-03-13T05:39:38.598Z,9.1
2023-03-13T05:42:04.688Z,9.3
2023-03-13T05:44:30.792Z,9.5
2023-03-13T05:46:56.909Z,9.6
2023-03-13T05:49:22.973Z,9.8
2023-03-13T05:51:49.085Z,9.9
2023-03-13T05:54:15.182Z,10
2023-03-13T05:56:40.264Z,10.1
2023-03-13T05:59:06.371Z,10.2
2023-03-13T06:01:32.463Z,10.3
2023-03-13T06:03:58.611Z,10.4
2023-03-13T06:06:24.718Z,10.4
2023-03-13T06:08:50.753Z,10.5
2023-03-13T06:11:16.902Z,10.6
2023-03-13T06:13:42.947Z,10.6
2023-03-13T06:16:09.039Z,10.7
2023-03-13T06:18:35.174Z,10.8
2023-03-13T06:21:01.226Z,10.9
2023-03-13T06:23:27.315Z,10.9
2023-03-13T06:25:53.413Z,11
2023-03-13T06:28:18.554Z,11.1
2023-03-13T06:30:44.691Z,11.3
2023-03-13T06:33:10.905Z,11.4
2023-03-13T06:35:36.806Z,11.5
2023-03-13T06:38:02.995Z,11.6
2023-03-13T06:40:29.078Z,11.6
2023-03-13T06:42:55.117Z,11.8
2023-03-13T06:45:21.251Z,11.9
2023-03-13T06:47:47.335Z,12
2023-03-13T06:50:13.491Z,12.1
2023-03-13T06:52:39.531Z,12.2
2023-03-13T06:55:05.632Z,12.3
2023-03-13T06:57:31.700Z,12.4
2023-03-13T06:59:57.767Z,12.5
2023-03-13T07:02:23.138Z,12.5
2023-03-13T07:04:49.164Z,12.6
2023-03-13T07:07:15.275Z,12.7
2023-03-13T07:09:41.349Z,12.7
2023-03-13T07:12:07.297Z,12.8
2023-03-13T07:14:33.496Z,12.9
2023-03-13T07:16:59.582Z,12.9
2023-03-13T07:19:25.532Z,12.9
2023-03-13T07:21:51.694Z,13
2023-03-13T07:24:17.743Z,13
2023-03-13T07:26:43.821Z,13
2023-03-13T07:29:10.137Z,13
2023-03-13T07:31:36.181Z,13.1
2023-03-13T07:34:01.329Z,13.1
2023-03-13T07:36:27.388Z,13.1
2023-03-13T07:38:53.506Z,13.2
2023-03-13T07:41:19.486Z,13.2
2023-03-13T07:43:45.600Z,13.2
2023-03-13T07:46:11.692Z,13.2
2023-03-13T07:48:37.803Z,13.2
2023-03-13T07:51:03.788Z,13.3
2023-03-13T07:53:29.976Z,13.3
2023-03-13T07:55:56.039Z,13.3
2023-03-13T07:58:22.221Z,13.3
2023-03-13T08:00:48.231Z,13.3
2023-03-13T08:03:14.327Z,13.3
2023-03-13T08:05:39.488Z,13.3
2023-03-13T08:08:05.557Z,13.3
2023-03-13T08:10:31.593Z,13.3
2023-03-13T08:12:57.740Z,13.4
2023-03-13T08:15:23.757Z,13.4
2023-03-13T08:17:49.990Z,13.4
2023-03-13T08:20:15.954Z,13.5
2023-03-13T08:22:42.076Z,13.6
2023-03-13T08:25:08.127Z,13.6
2023-03-13T08:27:34.368Z,13.7
2023-03-13T08:30:00.315Z,13.8
2023-03-13T08:32:26.460Z,13.9
2023-03-13T08:34:52.517Z,14
2023-03-13T08:37:17.721Z,14.1
2023-03-13T08:39:43.730Z,14.3
2023-03-13T08:42:09.821Z,14.4
2023-03-13T08:44:36.072Z,14.6
2023-03-13T08:47:02.074Z,14.8
2023-03-13T08:49:28.198Z,14.9
2023-03-13T08:51:54.215Z,15.1
2023-03-13T08:54:20.353Z,15.2
2023-03-13T08:56:46.472Z,15.3
2023-03-13T08:59:12.583Z,15.4
2023-03-13T09:01:38.667Z,15.5
2023-03-13T09:04:04.719Z,15.5
2023-03-13T09:06:30.787Z,15.6
2023-03-13T09:08:55.879Z,15.6
2023-03-13T09:11:21.992Z,15.7
2023-03-13T09:16:14.246Z,15.8
2023-03-13T09:18:40.331Z,15.9
2023-03-13T09:21:06.372Z,15.9
2023-03-13T09:23:32.440Z,15.9
2023-03-13T09:25:58.554Z,15.9
2023-03-13T09:28:24.822Z,16
2023-03-13T09:30:51.090Z,16
2023-03-13T09:33:16.878Z,16.1
2023-03-13T09:35:43.087Z,16.1
2023-03-13T09:38:09.046Z,16.1
2023-03-13T09:40:34.139Z,16.2
2023-03-13T09:43:00.294Z,16.3
2023-03-13T09:45:26.519Z,16.3
2023-03-13T09:47:52.451Z,16.4
2023-03-13T09:50:18.597Z,16.4
2023-03-13T09:52:44.686Z,16.4
2023-03-13T09:55:10.681Z,16.4
2023-03-13T10:00:02.885Z,16.4
2023-03-13T10:02:28.984Z,16.4
2023-03-13T10:04:55.091Z,16.4
2023-03-13T10:07:21.187Z,16.5
2023-03-13T10:09:47.309Z,16.5
2023-03-13T10:12:12.384Z,16.6
2023-03-13T10:14:38.463Z,16.7
2023-03-13T10:17:04.638Z,16.8
2023-03-13T10:19:30.703Z,16.9
2023-03-13T10:21:56.762Z,16.9
2023-03-13T10:24:22.867Z,17
2023-03-13T10:26:48.975Z,17.1
2023-03-13T10:29:15.034Z,17.2
2023-03-13T10:31:41.147Z,17.3
2023-03-13T10:34:07.225Z,17.3
2023-03-13T10:36:33.359Z,17.3
2023-03-13T10:38:59.422Z,17.4
2023-03-13T10:41:25.511Z,17.5
2023-03-13T10:43:50.671Z,17.6
2023-03-13T10:46:16.755Z,17.7
2023-03-13T10:48:42.831Z,17.8
2023-03-13T10:51:08.947Z,18
2023-03-13T10:53:35.048Z,18.1
2023-03-13T10:56:01.105Z,18.1
2023-03-13T10:58:27.234Z,18.1
2023-03-13T11:00:53.302Z,18.2
2023-03-13T11:03:19.604Z,18.2
2023-03-13T11:05:45.587Z,18.2
2023-03-13T11:08:11.678Z,18.3
2023-03-13T11:10:37.912Z,18.4
2023-03-13T11:13:03.862Z,18.5
2023-03-13T11:15:28.885Z,18.5
2023-03-13T11:17:54.976Z,18.5
2023-03-13T11:20:21.066Z,18.5
2023-03-13T11:22:47.162Z,18.6
2023-03-13T11:25:13.269Z,18.6
2023-03-13T11:27:39.431Z,18.7
2023-03-13T11:30:05.469Z,18.8
2023-03-13T11:32:31.545Z,18.8
2023-03-13T11:34:57.660Z,18.9
2023-03-13T11:37:23.915Z,18.9
2023-03-13T11:39:49.968Z,19
2023-03-13T11:42:16.140Z,19
2023-03-13T11:44:42.039Z,19.1
2023-03-13T11:47:07.340Z,19.1
2023-03-13T11:49:33.364Z,19.1
2023-03-13T11:51:59.378Z,19.1
2023-03-13T11:54:25.486Z,19
2023-03-13T11:59:17.726Z,18.9
2023-03-13T12:01:43.839Z,18.8
2023-03-13T12:04:09.856Z,18.7
2023-03-13T12:06:35.936Z,18.7
2023-03-13T12:09:01.975Z,18.7
2023-03-13T12:11:28.121Z,18.6
2023-03-13T12:13:54.159Z,18.6
2023-03-13T12:16:20.281Z,18.7
2023-03-13T12:18:45.376Z,18.7
2023-03-13T12:21:11.472Z,18.7
2023-03-13T12:23:37.564Z,18.7
2023-03-13T12:26:03.662Z,18.8
2023-03-13T12:28:29.754Z,18.8
2023-03-13T12:30:55.858Z,18.9
2023-03-13T12:33:21.955Z,19
2023-03-13T12:35:48.168Z,19.1
2023-03-13T12:38:14.139Z,19.1
2023-03-13T12:40:40.234Z,19.2
2023-03-13T12:43:06.410Z,19.3
2023-03-13T12:45:32.418Z,19.3
2023-03-13T12:47:58.531Z,19.4
2023-03-13T12:50:24.620Z,19.5
2023-03-13T12:52:50.821Z,19.6
2023-03-13T12:55:16.874Z,19.6
2023-03-13T12:57:42.904Z,19.6
2023-03-13T13:00:09.022Z,19.7
2023-03-13T13:02:35.158Z,19.7
2023-03-13T13:05:00.228Z,19.7
2023-03-13T13:07:26.303Z,19.8
2023-03-13T13:09:52.394Z,19.8
2023-03-13T13:12:18.481Z,19.8
2023-03-13T13:14:44.631Z,19.9
2023-03-13T13:17:10.667Z,20
2023-03-13T13:19:36.762Z,20.2
2023-03-13T13:22:02.874Z,20.3
2023-03-13T13:24:28.962Z,20.4
2023-03-13T13:26:55.061Z,20.6
2023-03-13T13:29:21.145Z,20.7
2023-03-13T13:31:47.249Z,20.9
2023-03-13T13:34:13.330Z,21
2023-03-13T13:36:38.447Z,21.1
2023-03-13T13:39:04.556Z,21.3
2023-03-13T13:41:30.634Z,21.4
2023-03-13T13:43:56.742Z,21.5
2023-03-13T13:46:22.823Z,21.6
2023-03-13T13:48:48.926Z,21.7
2023-03-13T13:51:15.210Z,21.7
2023-03-13T13:53:41.118Z,21.7
2023-03-13T13:56:07.214Z,21.7
2023-03-13T13:58:33.334Z,21.7
2023-03-13T14:00:59.412Z,21.7
2023-03-13T14:03:25.504Z,21.7
2023-03-13T14:05:51.606Z,21.8
2023-03-13T14:08:17.709Z,21.8
2023-03-13T14:10:43.784Z,21.8
2023-03-13T14:13:09.880Z,21.8
2023-03-13T14:15:35.991Z,21.9
2023-03-13T14:18:02.076Z,21.9
2023-03-13T14:20:28.182Z,22
2023-03-13T14:22:54.280Z,22
2023-03-13T14:25:20.376Z,22.1
2023-03-13T14:27:46.465Z,22.2
2023-03-13T14:30:12.544Z,22.2
2023-03-13T14:32:37.672Z,22.3
2023-03-13T14:35:03.759Z,22.3
2023-03-13T14:37:29.846Z,22.4
2023-03-13T14:39:55.963Z,22.5
2023-03-13T14:42:22.050Z,22.8
2023-03-13T14:44:48.286Z,23.4
2023-03-13T14:47:14.228Z,23.8
2023-03-13T14:49:40.325Z,24.2
2023-03-13T14:52:06.432Z,24.7
2023-03-13T14:54:32.516Z,25.1
2023-03-13T14:56:58.610Z,25.3
2023-03-13T14:59:24.801Z,25.2
2023-03-13T15:01:50.790Z,25.2
2023-03-13T15:04:16.885Z,25.2
2023-03-13T15:06:42.999Z,25.1
2023-03-13T15:09:09.081Z,24.9
2023-03-13T15:11:34.186Z,24.7
2023-03-13T15:14:00.294Z,24.5
2023-03-13T15:16:26.404Z,24.2
2023-03-13T15:18:52.541Z,23.9
2023-03-13T15:21:18.572Z,23.7
2023-03-13T15:23:44.669Z,23.4
2023-03-13T15:26:10.764Z,23.2
2023-03-13T15:28:36.870Z,23
2023-03-13T15:31:02.945Z,22.8
2023-03-13T15:33:29.066Z,22.7
2023-03-13T15:35:55.201Z,22.7
2023-03-13T15:38:21.232Z,22.8
2023-03-13T15:40:47.332Z,22.9
2023-03-13T15:43:12.463Z,23
2023-03-13T15:45:38.546Z,23
2023-03-13T15:48:04.692Z,22.9
2023-03-13T15:50:30.769Z,22.8
2023-03-13T15:52:56.822Z,22.6
2023-03-13T15:55:22.948Z,22.4
2023-03-13T15:57:49.053Z,22.2
2023-03-13T16:00:15.116Z,22
2023-03-13T16:02:41.214Z,21.9
2023-03-13T16:05:07.313Z,21.7
2023-03-13T16:07:33.405Z,21.5
2023-03-13T16:09:59.517Z,21.3
2023-03-13T16:12:25.593Z,21.2
2023-03-13T16:14:50.709Z,21
2023-03-13T16:17:16.825Z,20.8
2023-03-13T16:19:42.884Z,20.7
2023-03-13T16:22:08.986Z,20.6
2023-03-13T16:24:35.079Z,20.5
2023-03-13T16:27:01.174Z,20.5
2023-03-13T16:29:27.274Z,20.4
2023-03-13T16:31:53.395Z,20.3
2023-03-13T16:34:19.469Z,20.2
2023-03-13T16:36:45.582Z,20.1
2023-03-13T16:39:11.656Z,19.9
2023-03-13T16:41:37.741Z,19.8
2023-03-13T16:44:03.849Z,19.6
2023-03-13T16:46:28.976Z,19.4
2023-03-13T16:48:55.069Z,19.2
2023-03-13T16:51:21.158Z,19
2023-03-13T16:53:47.263Z,18.9
2023-03-13T16:56:13.514Z,18.7
2023-03-13T16:58:39.575Z,18.5
2023-03-13T17:01:05.754Z,18.3
2023-03-13T17:03:31.692Z,18.1
2023-03-13T17:05:57.890Z,18
2023-03-13T17:08:23.960Z,17.8
2023-03-13T17:10:50.095Z,17.7
2023-03-13T17:13:16.181Z,17.5
2023-03-13T17:15:42.245Z,17.4
2023-03-13T17:18:07.350Z,17.2
2023-03-13T17:20:33.505Z,17.1
2023-03-13T17:22:59.584Z,16.9
2023-03-13T17:25:25.713Z,16.8
2023-03-13T17:27:51.812Z,16.6
2023-03-13T17:30:17.826Z,16.5
2023-03-13T17:32:43.934Z,16.4
2023-03-13T17:35:09.968Z,16.3
2023-03-13T17:37:36.103Z,16.2
2023-03-13T17:40:02.079Z,16.1
2023-03-13T17:42:28.309Z,16
2023-03-13T17:44:54.420Z,15.9
2023-03-13T17:47:20.510Z,15.8
2023-03-13T17:49:45.668Z,15.7
2023-03-13T17:52:11.761Z,15.7
2023-03-13T17:54:37.816Z,15.6
2023-03-13T17:57:03.931Z,15.5
2023-03-13T17:59:30.009Z,15.5
2023-03-13T18:01:56.153Z,15.4
2023-03-13T18:04:22.244Z,15.3
2023-03-13T18:06:48.283Z,15.3
2023-03-13T18:09:14.204Z,15.2
2023-03-13T18:11:40.293Z,15.2
2023-03-13T18:14:06.592Z,15.1
2023-03-13T18:16:32.565Z,15.1
2023-03-13T18:18:58.821Z,15
2023-03-13T18:21:23.691Z,15
2023-03-13T18:23:49.948Z,15
2023-03-13T18:26:16.046Z,14.9
2023-03-13T18:28:42.063Z,14.9
2023-03-13T18:31:08.232Z,14.9
2023-03-13T18:33:34.177Z,14.8
2023-03-13T18:36:00.464Z,14.8
2023-03-13T18:38:26.518Z,14.8
2023-03-13T18:40:52.587Z,14.7
2023-03-13T18:43:18.718Z,14.7
2023-03-13T18:45:44.651Z,14.7
2023-03-13T18:48:10.910Z,14.7
2023-03-13T18:50:37.003Z,14.7
2023-03-13T18:53:02.109Z,14.7
2023-03-13T18:55:28.329Z,14.7
2023-03-13T18:57:54.302Z,14.7
2023-03-13T19:00:20.243Z,14.8
2023-03-13T19:03:18.128Z,14.7
2023-03-13T19:05:12.508Z,14.5
2023-03-13T19:07:38.664Z,14.2
2023-03-13T19:10:04.677Z,14
2023-03-13T19:12:30.887Z,13.8
2023-03-13T19:14:56.963Z,13.6
2023-03-13T19:17:23.100Z,13.5
2023-03-13T19:19:49.224Z,13.4
2023-03-13T19:22:15.350Z,13.3
2023-03-13T19:24:40.208Z,13.3
2023-03-13T19:27:06.460Z,13.2
2023-03-13T19:29:32.392Z,13.2
2023-03-13T19:31:58.669Z,13.1
2023-03-13T19:34:24.871Z,13.1
2023-03-13T19:36:50.880Z,13
2023-03-13T19:39:16.960Z,13
2023-03-13T19:44:09.150Z,12.9
2023-03-13T19:46:35.246Z,12.9
2023-03-13T19:49:01.353Z,12.8
2023-03-13T19:51:27.463Z,12.8
2023-03-13T19:53:53.651Z,12.8
2023-03-13T19:56:19.604Z,12.8
2023-03-13T19:58:44.658Z,12.7
2023-03-13T20:01:10.811Z,12.7
2023-03-13T20:03:36.902Z,12.7
2023-03-13T20:06:03.052Z,12.6
2023-03-13T20:08:29.085Z,12.6
2023-03-13T20:10:55.200Z,12.6
2023-03-13T20:13:21.283Z,12.6
2023-03-13T20:15:47.380Z,12.6
2023-03-13T20:18:13.462Z,12.5
2023-03-13T20:20:39.566Z,12.5
2023-03-13T20:23:05.679Z,12.5
2023-03-13T20:25:31.734Z,12.5
2023-03-13T20:27:57.871Z,12.5
2023-03-13T20:30:23.001Z,12.5
2023-03-13T20:32:49.048Z,12.5
2023-03-13T20:35:15.132Z,12.5
2023-03-13T20:37:41.258Z,12.4
2023-03-13T20:40:07.238Z,12.2
2023-03-13T20:42:33.384Z,12
2023-03-13T20:44:59.505Z,11.7
2023-03-13T20:47:25.594Z,11.4
2023-03-13T20:49:51.646Z,11.2
2023-03-13T20:52:17.731Z,11
2023-03-13T20:54:43.765Z,10.8
2023-03-13T20:57:10.001Z,10.7
2023-03-13T20:59:36.149Z,10.6
2023-03-13T21:02:01.169Z,10.5
2023-03-13T21:04:27.253Z,10.4
2023-03-13T21:06:53.382Z,10.4
2023-03-13T21:09:19.446Z,10.4
2023-03-13T21:11:45.555Z,10.3
2023-03-13T21:14:11.564Z,10.3
2023-03-13T21:16:37.713Z,10.2
2023-03-13T21:19:03.815Z,10.2
2023-03-13T21:21:29.849Z,10.2
2023-03-13T21:23:56.001Z,10.2
2023-03-13T21:26:22.184Z,10.2
2023-03-13T21:28:48.134Z,10.2
2023-03-13T21:31:14.206Z,10.2
2023-03-13T21:33:39.419Z,10.2
2023-03-13T21:36:05.489Z,10.3
2023-03-13T21:38:31.659Z,10.3
2023-03-13T21:40:57.770Z,10.3
2023-03-13T21:43:23.873Z,10.3
2023-03-13T21:45:49.960Z,10.3
2023-03-13T21:48:16.072Z,10.3
2023-03-13T21:50:42.190Z,10.3
2023-03-13T21:53:08.183Z,10.3
2023-03-13T21:55:34.366Z,10.3
2023-03-13T21:58:00.472Z,10.3
2023-03-13T22:00:26.385Z,10.3
2023-03-13T22:02:52.576Z,10.3
2023-03-13T22:05:17.625Z,10.3
2023-03-13T22:07:43.678Z,10.3
2023-03-13T22:10:09.944Z,10.3
2023-03-13T22:12:36.059Z,10.3
2023-03-13T22:15:02.073Z,10.3
2023-03-13T22:17:28.219Z,10.3
2023-03-13T22:19:54.186Z,10.3
2023-03-13T22:22:20.328Z,10.2
2023-03-13T22:24:46.456Z,10.2
2023-03-13T22:27:12.547Z,10.2
2023-03-13T22:29:38.529Z,10.2
2023-03-13T22:32:04.650Z,10.2
2023-03-13T22:34:30.954Z,10.2
2023-03-13T22:36:55.943Z,10.2
2023-03-13T22:39:22.107Z,10.1
2023-03-13T22:44:14.189Z,10.1
2023-03-13T22:46:40.365Z,10.1
2023-03-13T22:49:06.304Z,10.1
2023-03-13T22:51:32.435Z,10.1
2023-03-13T22:53:58.491Z,10.1
2023-03-13T22:56:24.729Z,10.1
2023-03-13T22:58:49.716Z,10
2023-03-13T23:01:15.909Z,10
2023-03-13T23:03:42.016Z,10
2023-03-13T23:06:08.068Z,10
2023-03-13T23:08:34.272Z,10
2023-03-13T23:11:00.264Z,10
2023-03-13T23:13:26.473Z,10
2023-03-13T23:15:55.853Z,10
2023-03-13T23:18:18.601Z,10
2023-03-13T23:20:56.981Z,10
2023-03-13T23:23:10.702Z,10
2023-03-13T23:25:37.001Z,10
2023-03-13T23:28:03.015Z,10
2023-03-13T23:30:28.106Z,10
2023-03-13T23:32:54.209Z,10
2023-03-13T23:35:20.301Z,10
2023-03-13T23:37:46.425Z,10
2023-03-13T23:40:12.345Z,10
2023-03-13T23:42:38.522Z,10
2023-03-13T23:45:04.632Z,10
2023-03-13T23:47:30.791Z,10
2023-03-13T23:49:56.866Z,10
2023-03-13T23:52:23.023Z,10
2023-03-13T23:54:49.064Z,10
2023-03-13T23:57:15.120Z,9.9
2023-03-13T23:59:41.230Z,9.9
